Portada
METAR-TAF:

METAR-TAF

Aeropuertos :

Aeropuerto Internacional Julius Nyerere

Dar es Salaam, Tanzania

latitud: 06-52S, longitud: 039-12E, altitud: 55 m

Observación

El informe se hizo hace 45 minutos, a las 08:00 UTC
Viento 10 kt del sur
Temperatura 28°C
Humedad 74%
Presión 1017 hPa
Visibilidad 10 km o más
Nubes dispersas a una altura de 1400 ft
Cielo nuboso a una altura de 8000 ft

METAR: HTDA 060800Z 17010KT 9999 SCT014 BKN080 28/23 Q1017 NOSIG

Hora: 11:45 (08:45 UTC)

Pronóstico

El informe se hizo hace 3 horas y 45 minutos, a las 05:00 UTC
Pronóstico válido del 06 a las 06 UTC al 07 a las 12 UTC
Viento 10 kt del sur-suroeste
Visibilidad 10 km o más
Cielo nuboso a una altura de 2200 ft
Evolucionando progresivamente
del 06 a las 12 UTC al 06 a las 15 UTC
Viento 10 kt del sur-sureste
Nubes dispersas a una altura de 2400 ft

TAF: HTDA 060500Z 0606/0712 21010KT 9999 BKN022 BECMG 0612/0615 15010KT SCT024

Observaciones y pronósticos meteorológicos de más de 4000 aeropuertos (mensajes METAR y TAF).

Los puntos amarillos y rojos representan las estaciones disponibles.

Ponga el ratón en el punto deseado para ver el nombre de la estación.

Haga clic para ver las observaciones y los pronósticos meteorológicos.

Para cambiar el mapa : haga clic en los botones verdes con una cruz de color negro para hacer un zoom, en el botón verde con un guión para alejar o en las flechas verdes para mapas adyacentes.


METAR-TAF: